• Join FlightAware (Why Join?)
  • Login
  • US Flag 
08:53PM EST


 

Airport Tracker/Info


-or-


 

Live Flight TrackerFlight Track Log ✈ UAL115 ✈ 10-Jul-2013 ✈ EGLL / LHR - KEWR

Flight Track Log - Related Links

Times and Time Zones

All times are in EDT time to prevent confusion due to time zone crossing. See the UAL115 flight status page for this flight to view local times or setup timezone preferences in your user account.

Time Position Orientation Groundspeed Altitude Reporting Facility
EDT Latitude Longitude Course Direction KTS MPH feet Rate Location/Type
05:49PM 51.4600 -0.4770 282° West 28 32  Level FlightAware
05:50PM 51.4620 -0.4770 360° North 34 39  Level FlightAware
05:51PM 51.4660 -0.4770 360° North 19 22  Level FlightAware
05:53PM 51.5231 -0.7423 292° West  Level FlightAware Approximate
05:53PM 51.4650 -0.4770 292° West 2 2  Level FlightAware
05:54PM 51.4660 -0.4770 360° North 18 21  Level FlightAware
05:55PM 51.4660 -0.4780 270° West 10 12  Level FlightAware
05:56PM 51.4650 -0.4780 180° South 2 2  Level FlightAware
05:58PM 51.4650 -0.4790 270° West 14 16  Level FlightAware
06:01PM 51.5537 -0.8777 282° West  Level FlightAware Approximate
06:01PM 51.4640 -0.4800 282° West 2 2  Level FlightAware
06:02PM 51.5744 -1.0324 282° West  Level FlightAware Approximate
06:03PM 51.4640 -0.4810 270° West 21 24  Level FlightAware
06:05PM 51.5217 -0.7369 292° West  Level FlightAware Approximate
06:06PM 51.5548 -0.8855 282° West  Level FlightAware Approximate
06:07PM 51.5754 -1.0402 282° West  Level FlightAware Approximate
06:07PM 51.4650 -0.4860 282° West 5 6  Level FlightAware
06:09PM 51.5211 -0.7345 292° West  Level FlightAware Approximate
06:09PM 51.4650 -0.4890 292° West 17 20  Level FlightAware
06:11PM 51.5297 -0.7687 292° West  Level FlightAware Approximate
06:11PM 51.4670 -0.4840 282° West 72 83  Level FlightAware
06:12PM 51.5592 -0.9190 282° West  Level FlightAware Approximate
06:12PM 51.4670 -0.4600 90° East  Level FlightAware
06:12PM 51.4670 -0.4380 90° East 172 198 500 2,580 Climbing FlightAware
06:13PM 51.4677 -0.4096 88° East 162 186 1,700 3,000 Climbing FlightAware ADS-B
06:13PM 51.4690 -0.4041 69° East 161 185 1,900 2,220 Climbing FlightAware ADS-B
06:13PM 51.4701 -0.4010 61° Northeast 162 186 2,000 1,680 Climbing FlightAware ADS-B
06:13PM 51.4718 -0.3973 54° Northeast 165 190 2,100 1,320 Climbing FlightAware ADS-B
06:13PM 51.4749 -0.3926 43° Northeast 169 194 2,200 1,560 Climbing FlightAware ADS-B
06:13PM 51.4804 -0.3848 42° Northeast 171 197 2,500 2,280 Climbing FlightAware ADS-B
06:13PM 51.4849 -0.3773 46° Northeast 171 197 2,900 2,340 Climbing FlightAware ADS-B
06:13PM 51.4932 -0.3624 48° Northeast 178 205 3,400 1,500 Climbing FlightAware ADS-B
06:14PM 51.5023 -0.3464 48° Northeast 199 229 3,700 1,200 Climbing FlightAware ADS-B
06:14PM 51.5078 -0.3370 47° Northeast 208 239 3,900 1,380 Climbing FlightAware ADS-B
06:14PM 51.5132 -0.3271 49° Northeast 216 249 4,100 1,500 Climbing FlightAware ADS-B
06:14PM 51.5157 -0.3233 43° Northeast 219 252 4,200 2,520 Climbing FlightAware ADS-B
06:14PM 51.5188 -0.3191 40° Northeast 223 257 4,400 2,520 Climbing FlightAware ADS-B
06:14PM 51.5219 -0.3162 30° Northeast 226 260 4,500 1,680 Climbing FlightAware ADS-B
06:14PM 51.5252 -0.3138 25° Northeast 231 266 4,600 840 Climbing FlightAware ADS-B
06:14PM 51.5284 -0.3121 18° North 237 273 4,600 960 Level FlightAware ADS-B
06:14PM 51.5317 -0.3109 13° North 242 278 4,700 960 Climbing FlightAware ADS-B
06:14PM 51.5351 -0.3104 North 246 283 4,700 840 Level FlightAware ADS-B
06:14PM 51.5399 -0.3106 358° North 252 290 4,800 2,220 Climbing FlightAware ADS-B
06:14PM 51.5441 -0.3118 350° North 257 296 5,000 2,520 Climbing FlightAware ADS-B
06:14PM 51.5475 -0.3133 344° North 260 299 5,100 1,980 Climbing FlightAware ADS-B
06:15PM 51.5509 -0.3153 340° North 262 302 5,200 1,680 Climbing FlightAware ADS-B
06:15PM 51.5556 -0.3190 334° Northwest 266 306 5,300 2,220 Climbing FlightAware ADS-B
06:15PM 51.5602 -0.3233 330° Northwest 267 307 5,500 2,100 Climbing FlightAware ADS-B
06:15PM 51.5765 -0.3401 327° Northwest 273 314 6,000 1,140 Climbing FlightAware ADS-B
06:15PM 51.5928 -0.3574 326° Northwest 285 328 6,100 780 Climbing FlightAware ADS-B
06:15PM 51.6093 -0.3746 327° Northwest 283 326 6,400 1,380 Climbing FlightAware ADS-B
06:16PM 51.6258 -0.3914 328° Northwest 280 322 6,800 1,800 Climbing FlightAware ADS-B
06:16PM 51.6426 -0.4082 328° Northwest 277 319 7,300 2,280 Climbing FlightAware ADS-B
06:16PM 51.6545 -0.4198 329° Northwest 277 319 7,800 2,400 Climbing FlightAware ADS-B
06:16PM 51.6593 -0.4239 332° Northwest 278 320 7,900 2,220 Climbing FlightAware ADS-B
06:16PM 51.6635 -0.4273 333° Northwest 278 320 8,100 2,640 Climbing FlightAware ADS-B
06:16PM 51.6697 -0.4312 339° North 278 320 8,300 2,700 Climbing FlightAware ADS-B
06:17PM 51.6876 -0.4407 342° North 277 319 9,000 2,760 Climbing FlightAware ADS-B
06:17PM 51.7061 -0.4491 344° North 280 322 9,700 2,460 Climbing FlightAware ADS-B
06:17PM 51.7449 -0.4657 345° North 287 330 10,900 2,340 Climbing FlightAware ADS-B
06:18PM 51.7609 -0.4720 346° North 289 333 11,400 2,400 Climbing FlightAware ADS-B
06:18PM 51.8012 -0.4786 354° North 296 341 12,600 2,400 Climbing FlightAware ADS-B
06:19PM 51.8427 -0.4829 356° North 301 346 13,800 1,980 Climbing FlightAware ADS-B
06:19PM 51.8855 -0.4872 356° North 320 368 14,600 1,380 Climbing FlightAware ADS-B
06:19PM 51.9255 -0.4923 355° North 344 396 15,100 1,080 Climbing FlightAware ADS-B
06:20PM 51.9349 -0.4942 353° North 350 403 15,200 1,080 Climbing FlightAware ADS-B
06:20PM 51.9434 -0.4970 349° North 356 410 15,300 840 Climbing FlightAware ADS-B
06:20PM 51.9576 -0.5047 342° North 365 420 15,400 960 Climbing FlightAware ADS-B
06:20PM 51.9706 -0.5153 333° Northwest 370 426 15,600 1,380 Climbing FlightAware ADS-B
06:20PM 52.0148 -0.5645 326° Northwest 392 451 16,300 1,140 Climbing FlightAware ADS-B
06:21PM 52.0465 -0.6008 325° Northwest 408 470 16,600 780 Climbing FlightAware ADS-B
06:21PM 52.0582 -0.6125 328° Northwest 413 475 16,700 960 Climbing FlightAware ADS-B
06:21PM 52.1116 -0.6542 334° Northwest 431 496 17,200 1,380 Climbing FlightAware ADS-B
06:22PM 52.1663 -0.6966 335° Northwest 440 506 18,100 1,800 Climbing FlightAware ADS-B
06:22PM 52.2216 -0.7413 334° Northwest 446 513 19,000 1,740 Climbing FlightAware ADS-B
06:23PM 52.2791 -0.7883 333° Northwest 452 520 19,900 1,620 Climbing FlightAware ADS-B
06:23PM 52.3363 -0.8318 335° Northwest 458 527 20,700 1,500 Climbing FlightAware ADS-B
06:24PM 52.3976 -0.8775 336° Northwest 464 534 21,500 1,620 Climbing FlightAware ADS-B
06:25PM 52.4561 -0.9222 335° Northwest 468 539 22,400 1,560 Climbing FlightAware ADS-B
06:25PM 52.5167 -0.9689 335° Northwest 473 544 23,100 1,440 Climbing FlightAware ADS-B
06:26PM 52.5787 -1.0172 335° Northwest 478 550 23,900 1,440 Climbing FlightAware ADS-B
06:26PM 52.6400 -1.0648 335° Northwest 480 552 24,600 1,320 Climbing FlightAware ADS-B
06:27PM 52.7007 -1.1122 335° Northwest 484 557 25,300 1,560 Climbing FlightAware ADS-B
06:27PM 52.7617 -1.1596 335° Northwest 481 554 26,200 1,800 Climbing FlightAware ADS-B
06:28PM 52.8216 -1.2066 335° Northwest 478 550 27,100 1,680 Climbing FlightAware ADS-B
06:28PM 52.8818 -1.2538 335° Northwest 477 549 27,900 1,560 Climbing FlightAware ADS-B
06:29PM 52.9492 -1.3089 335° Northwest 480 552 28,700 1,740 Climbing FlightAware UK
06:29PM 52.9560 -1.3122 335° Northwest 475 547 29,000 1,620 Climbing FlightAware ADS-B
06:29PM 53.0194 -1.3649 335° Northwest 480 552 29,700 1,500 Climbing FlightAware UK
06:29PM 53.0171 -1.3605 335° Northwest 472 543 29,800 1,680 Climbing FlightAware ADS-B
06:30PM 53.0770 -1.4080 335° Northwest 470 541 30,600 1,440 Climbing FlightAware ADS-B
06:30PM 53.1372 -1.4559 335° Northwest 468 539 31,300 1,380 Climbing FlightAware ADS-B
06:31PM 53.1991 -1.5054 334° Northwest 467 537 32,100 1,380 Climbing FlightAware ADS-B
06:31PM 53.2592 -1.5533 334° Northwest 465 535 32,800 1,260 Climbing FlightAware ADS-B
06:32PM 53.3213 -1.6076 334° Northwest 470 541 33,400 1,320 Climbing FlightAware UK
06:32PM 53.3301 -1.6102 334° Northwest 463 533 33,600 960 Climbing FlightAware ADS-B
06:32PM 53.3886 -1.6576 334° Northwest 461 531 34,000 360 Climbing FlightAware ADS-B
06:33PM 53.4461 -1.7041 334° Northwest 461 531 34,000  Level FlightAware ADS-B
06:33PM 53.5036 -1.7506 334° Northwest 460 529 34,000  Level FlightAware ADS-B
06:34PM 53.5626 -1.7987 334° Northwest 459 528 34,000  Level FlightAware ADS-B
06:34PM 53.6210 -1.8463 334° Northwest 458 527 34,000  Level FlightAware ADS-B
06:35PM 53.6826 -1.8967 334° Northwest 458 527 34,000  Level FlightAware ADS-B
06:35PM 53.7380 -1.9420 334° Northwest 457 526 34,000  Level FlightAware
06:36PM 53.7982 -1.9995 334° Northwest 466 536 34,000  Level FlightAware UK
06:36PM 53.8080 -2.0000 334° Northwest 457 526 34,000  Level FlightAware
06:37PM 53.8860 -2.0640 334° Northwest 456 525 34,000  Level FlightAware
06:37PM 53.9157 -2.0889 334° Northwest 457 526 34,000  Level FlightAware ADS-B
06:37PM 53.9653 -2.1305 334° Northwest 458 527 34,000  Level FlightAware ADS-B
06:38PM 53.9758 -2.1411 329° Northwest 457 526 34,000  Level FlightAware ADS-B
06:38PM 54.0285 -2.2186 329° Northwest 466 536 34,000  Level FlightAware UK
06:38PM 54.0470 -2.2370 329° Northwest 457 526 34,000  Level FlightAware
06:39PM 54.0960 -2.3180 316° Northwest 457 526 34,000  Level FlightAware
06:40PM 54.1610 -2.4280 316° Northwest 458 527 34,000  Level FlightAware
06:40PM 54.1722 -2.4595 316° Northwest 466 536 34,000  Level FlightAware UK
06:40PM 54.2174 -2.5352 316° Northwest 468 539 34,000  Level FlightAware UK
06:40PM 54.2250 -2.5340 316° Northwest 458 527 34,000  Level FlightAware
06:41PM 54.2860 -2.6370 315° West 458 527 34,000  Level FlightAware
06:42PM 54.3400 -2.7260 316° Northwest 459 528 34,000  Level FlightAware
06:42PM 54.4120 -2.8500 316° Northwest 459 528 34,000  Level FlightAware
06:42PM 54.4159 -2.8708 316° Northwest 470 541 34,000  Level FlightAware UK
06:43PM 54.4690 -2.9624 316° Northwest 468 539 34,000  Level FlightAware UK
06:43PM 54.4780 -2.9630 316° Northwest 459 528 34,000  Level FlightAware
06:44PM 54.5380 -3.0650 315° West 460 529 34,000  Level FlightAware
06:44PM 54.5920 -3.1600 314° West 461 531 34,000  Level FlightAware
06:45PM 54.6530 -3.2640 314° West 461 531 34,000  Level FlightAware
06:45PM 54.6572 -3.2888 314° West 470 541 34,000  Level FlightAware UK
06:46PM 54.7020 -3.3671 314° West 470 541 34,000  Level FlightAware UK
06:46PM 54.7130 -3.3690 314° West 461 531 34,000  Level FlightAware
06:46PM 54.7810 -3.4890 315° West 461 531 34,000  Level FlightAware
06:47PM 54.8449 -3.6188 315° West 470 541 34,000  Level FlightAware UK
06:47PM 54.8460 -3.6030 315° West 461 531 34,000  Level FlightAware
06:48PM 54.8977 -3.7127 315° West 470 541 34,000  Level FlightAware UK
06:48PM 54.9030 -3.7040 315° West 462 532 34,000  Level FlightAware
06:48PM 54.9640 -3.8140 314° West 461 531 34,000  Level FlightAware
06:49PM 55.0230 -3.9190 314° West 462 532 34,000  Level FlightAware
06:50PM 55.0820 -4.0260 314° West 462 532 34,000  Level FlightAware
06:50PM 55.0846 -4.0475 314° West 468 539 34,000  Level FlightAware UK
06:50PM 55.1290 -4.1281 314° West 468 539 34,000  Level FlightAware UK
06:51PM 55.1500 -4.1480 314° West 463 533 34,000  Level FlightAware
06:51PM 55.2150 -4.2670 314° West 464 534 34,000  Level FlightAware
06:51PM 55.2181 -4.2899 314° West 468 539 34,000  Level FlightAware UK
06:52PM 55.2624 -4.3708 314° West 468 539 34,000  Level FlightAware UK
06:52PM 55.3030 -4.4290 314° West 465 535 34,000  Level FlightAware
06:53PM 55.3470 -4.5080 314° West 464 534 34,000  Level FlightAware
06:53PM 55.4042 -4.6316 314° West 468 539 34,000  Level FlightAware UK
06:54PM 55.4160 -4.6370 314° West 465 535 34,000  Level FlightAware
06:54PM 55.4740 -4.7460 313° West 465 535 34,000  Level FlightAware
06:55PM 55.5410 -4.8700 314° West 466 536 34,000  Level FlightAware
06:56PM 55.5930 -4.9680 314° West 465 535 34,000  Level FlightAware
06:56PM 55.5990 -4.9946 314° West 470 541 34,000  Level FlightAware UK
06:56PM 55.6431 -5.0776 314° West 468 539 34,000  Level FlightAware UK
06:56PM 55.6580 -5.0920 314° West 466 536 34,000  Level FlightAware
06:57PM 55.7220 -5.2130 313° West 460 529 34,000  Level FlightAware
06:58PM 55.7810 -5.3260 313° West 460 529 34,000  Level FlightAware
06:58PM 55.7837 -5.3439 313° West 470 541 34,000  Level FlightAware UK
06:58PM 55.8276 -5.4278 313° West 468 539 34,000  Level FlightAware UK
06:58PM 55.8320 -5.4240 313° West 461 531 34,000  Level FlightAware
06:59PM 55.9000 -5.5540 313° West 461 531 34,000  Level FlightAware
07:00PM 55.9510 -5.6540 313° West 461 531 34,000  Level FlightAware
07:00PM 55.9591 -5.6807 313° West 468 539 34,000  Level FlightAware UK
07:00PM 56.0028 -5.7653 313° West 470 541 34,000  Level FlightAware UK
07:00PM 56.0070 -5.7620 313° West 461 531 34,000  Level FlightAware
07:01PM 56.0780 -5.9030 312° West 461 531 34,000  Level FlightAware
07:02PM 56.1339 -6.0212 312° West 470 541 34,000  Level FlightAware UK
07:02PM 56.1410 -6.0280 312° West 462 532 34,000  Level FlightAware
07:02PM 56.1990 -6.1420 312° West 463 533 34,000  Level FlightAware
07:03PM 56.2500 -6.2450 312° West 463 533 34,000  Level FlightAware
07:04PM 56.3085 -6.3662 312° West 468 539 34,000  Level FlightAware UK
07:04PM 56.3140 -6.3730 312° West 464 534 34,000  Level FlightAware
07:04PM 56.3605 -6.4700 312° West 470 541 34,000  Level FlightAware UK
07:04PM 56.3730 -6.4910 312° West 464 534 34,000  Level FlightAware
07:05PM 56.4240 -6.5940 312° West 464 534 34,000  Level FlightAware
07:06PM 56.4820 -6.7130 311° West 464 534 34,000  Level FlightAware
07:06PM 56.5431 -6.8379 311° West 468 539 34,000  Level FlightAware UK
07:06PM 56.5390 -6.8290 311° West 464 534 34,000  Level FlightAware
07:07PM 56.5861 -6.9260 311° West 468 539 34,000  Level FlightAware UK
07:07PM 56.6050 -6.9650 311° West 469 540 34,000  Level FlightAware
07:08PM 56.6620 -7.0840 311° West 470 541 34,000  Level FlightAware
07:09PM 56.7190 -7.2010 311° West 469 540 34,000  Level FlightAware
07:09PM 56.7246 -7.2091 311° West 470 541 34,000  Level FlightAware UK
07:09PM 56.7676 -7.2982 311° West 470 541 34,000  Level FlightAware UK
07:09PM 56.7830 -7.3360 311° West 471 542 34,000  Level FlightAware
07:10PM 56.8330 -7.4400 311° West 470 541 34,000  Level FlightAware
07:10PM 56.8830 -7.5460 311° West 470 541 34,000  Level FlightAware
07:11PM 56.8965 -7.5669 311° West 472 543 34,000  Level FlightAware UK
07:11PM 56.9390 -7.6650 311° West 469 540 34,000  Level FlightAware
07:11PM 56.9476 -7.6740 311° West 472 543 34,000  Level FlightAware UK
07:12PM 56.9901 -7.7640 311° West 472 543 34,000  Level FlightAware UK
07:12PM 57.0030 -7.8020 311° West 467 537 34,000  Level FlightAware
07:12PM 57.0530 -7.9080 311° West 466 536 34,000  Level FlightAware
07:13PM 57.0750 -7.9439 311° West 472 543 34,000  Level FlightAware UK
07:13PM 57.1172 -8.0337 311° West 474 545 34,000  Level FlightAware UK
07:13PM 57.1230 -8.0600 311° West 459 528 34,000  Level FlightAware
07:14PM 57.1780 -8.1790 310° West 457 526 34,000  Level FlightAware
07:15PM 57.2424 -8.3032 310° West 472 543 34,000  Level FlightAware UK
07:15PM 57.2838 -8.3928 311° West 472 543 34,000  Level FlightAware UK
07:15PM 57.2670 -8.3770 311° West 456 525 34,000  Level FlightAware
07:16PM 57.3251 -8.4824 311° West 470 541 34,000  Level FlightAware UK
07:16PM 57.3290 -8.5080 311° West 453 521 34,000  Level FlightAware
07:17PM 57.3900 -8.6440 311° West 457 526 34,000  Level FlightAware
07:17PM 57.4073 -8.6618 311° West 474 545 34,000  Level FlightAware UK
07:17PM 57.4481 -8.7517 311° West 476 548 34,000  Level FlightAware UK
07:17PM 57.4440 -8.7630 311° West 455 524 34,000  Level FlightAware
07:18PM 57.4980 -8.8840 310° West 452 520 34,000  Level FlightAware
07:19PM 57.5510 -9.0020 310° West 450 518 34,000  Level FlightAware
07:19PM 57.6110 -9.1380 310° West 442 509 34,000  Level FlightAware
07:20PM 57.6760 -9.2850 310° West 437 503 34,000  Level FlightAware
07:21PM 57.7270 -9.4010 309° West 438 504 34,000  Level FlightAware
07:21PM 57.7780 -9.5180 309° West 435 501 34,000  Level FlightAware
07:22PM 57.8280 -9.6320 310° West 431 496 34,000  Level FlightAware
07:23PM 57.8850 -9.7650 309° West 422 486 34,000  Level FlightAware
07:24PM 57.9350 -9.8810 309° West 419 482 34,000  Level FlightAware
07:24PM 57.9830 -10.0150 304° West 423 487 34,000  Level FlightAware
07:25PM 57.9950 -10.1660 279° West 434 499 34,000  Level FlightAware
07:26PM 58.0010 -10.3160 274° West 432 497 34,000  Level FlightAware
07:26PM 58.0060 -10.4870 273° West 431 496 34,000  Level FlightAware
07:27PM 58.0110 -10.6350 274° West 431 496 34,000  Level FlightAware
07:28PM 58.0170 -10.8020 274° West 431 496 34,000  Level FlightAware
07:28PM 58.0210 -10.9510 273° West 431 496 34,000  Level FlightAware
07:29PM 58.0260 -11.1210 273° West 431 496 34,000  Level FlightAware
07:30PM 58.0290 -11.2150 273° West 432 497 34,000  Level FlightAware
07:30PM 58.0310 -11.3270 272° West 432 497 34,000  Level FlightAware
07:31PM 58.0370 -11.5160 274° West 433 498 34,000  Level FlightAware
07:32PM 58.0410 -11.6710 273° West 434 499 34,000  Level FlightAware
07:32PM 58.0450 -11.8220 273° West 435 501 34,000  Level FlightAware
07:33PM 58.0490 -11.9750 273° West 436 502 34,000  Level FlightAware
07:34PM 58.0540 -12.2220 272° West 438 504 34,000  Level FlightAware
07:35PM 58.0570 -12.3710 272° West 438 504 34,000  Level FlightAware
07:36PM 58.0610 -12.5410 273° West 438 504 34,000  Level FlightAware
07:36PM 58.0630 -12.6580 272° West 438 504 34,000  Level FlightAware
07:37PM 58.0660 -12.8170 272° West 438 504 34,000  Level FlightAware
07:38PM 58.0680 -12.9380 272° West 438 504 34,000  Level FlightAware
07:38PM 58.0710 -13.0940 272° West 438 504 34,000  Level FlightAware
07:39PM 58.0730 -13.2110 272° West 438 504 34,000  Level FlightAware
07:40PM 58.0760 -13.3670 272° West 438 504 34,000  Level FlightAware
07:40PM 58.0780 -13.4880 272° West 438 504 34,000  Level FlightAware
07:41PM 58.0800 -13.5990 272° West 438 504 34,000  Level FlightAware
07:42PM 58.0830 -13.7480 272° West 438 504 34,000  Level FlightAware
07:42PM 58.0850 -13.8690 272° West 438 504 34,000  Level FlightAware
07:43PM 58.0880 -14.0280 272° West 438 504 34,000  Level FlightAware
07:44PM 58.0900 -14.1460 272° West 438 504 34,000  Level FlightAware
07:45PM 58.0930 -14.3020 272° West 438 504 34,000  Level FlightAware
07:47PM 58.0989 -14.6746 272° West  Level Estimated
07:48PM 58.1016 -14.8725 272° West  Level Estimated
07:49PM 58.1040 -15.0704 271° West  Level Estimated
07:50PM 58.1064 -15.2981 271° West  Level Estimated
07:51PM 58.1083 -15.5258 271° West  Level Estimated
07:52PM 58.1099 -15.7535 271° West  Level Estimated
07:53PM 58.1110 -15.9812 271° West  Level Estimated
07:54PM 58.1118 -16.2089 270° West  Level Estimated
07:55PM 58.1121 -16.4367 270° West  Level Estimated
07:56PM 58.1120 -16.6644 270° West  Level Estimated
07:57PM 58.1116 -16.8922 270° West  Level Estimated
07:58PM 58.1107 -17.1199 270° West  Level Estimated
07:59PM 58.1094 -17.3476 269° West  Level Estimated
08:00PM 58.1077 -17.5753 269° West  Level Estimated
08:01PM 58.1056 -17.8030 269° West  Level Estimated
08:02PM 58.1031 -18.0306 269° West  Level Estimated
08:03PM 58.1002 -18.2582 269° West  Level Estimated
08:04PM 58.0969 -18.4858 269° West  Level Estimated
08:05PM 58.0932 -18.7133 268° West  Level Estimated
08:06PM 58.0890 -18.9408 268° West  Level Estimated
08:07PM 58.0845 -19.1682 268° West  Level Estimated
08:08PM 58.0796 -19.3956 268° West  Level Estimated
08:09PM 58.0742 -19.6229 268° West  Level Estimated
08:10PM 58.0685 -19.8501 267° West  Level Estimated
08:11PM 58.0623 -20.0772 267° West  Level Estimated
08:12PM 58.0558 -20.3043 267° West  Level Estimated
08:12PM 58.0000 -20.0000 285° West 434 499 34,000  Level ETMS Enhanced Traffic Management System
08:13PM 58.0488 -20.5313 267° West  Level Estimated
08:14PM 58.0415 -20.7582 267° West  Level Estimated
08:15PM 58.0337 -20.9850 266° West  Level Estimated
08:16PM 58.0255 -21.2117 266° West  Level Estimated
08:17PM 58.0169 -21.4382 266° West  Level Estimated
08:18PM 58.2672 -21.9960 283° West 434 499 34,000  Level FlightAware Transoceanic
08:19PM 58.2949 -22.2196 283° West 434 499 34,000  Level FlightAware Transoceanic
08:20PM 58.3223 -22.4435 283° West 434 499 34,000  Level FlightAware Transoceanic
08:21PM 58.3493 -22.6678 283° West 434 499 34,000  Level FlightAware Transoceanic
08:22PM 58.3759 -22.8924 283° West 434 499 34,000  Level FlightAware Transoceanic
08:23PM 58.4020 -23.1174 282° West 434 499 34,000  Level FlightAware Transoceanic
08:24PM 58.4278 -23.3426 282° West 434 499 34,000  Level FlightAware Transoceanic
08:25PM 58.4532 -23.5683 282° West 434 499 34,000  Level FlightAware Transoceanic
08:26PM 58.4782 -23.7942 282° West 434 499 34,000  Level FlightAware Transoceanic
08:27PM 58.5028 -24.0205 282° West 434 499 34,000  Level FlightAware Transoceanic
08:28PM 58.5270 -24.2470 281° West 434 499 34,000  Level FlightAware Transoceanic
08:29PM 58.5508 -24.4739 281° West 434 499 34,000  Level FlightAware Transoceanic
08:30PM 58.5742 -24.7011 281° West 434 499 34,000  Level FlightAware Transoceanic
08:31PM 58.5972 -24.9286 281° West 434 499 34,000  Level FlightAware Transoceanic
08:32PM 58.6198 -25.1564 281° West 434 499 34,000  Level FlightAware Transoceanic
08:33PM 58.6420 -25.3845 280° West 434 499 34,000  Level FlightAware Transoceanic
08:34PM 58.6638 -25.6129 280° West 434 499 34,000  Level FlightAware Transoceanic
08:35PM 58.6852 -25.8415 280° West 434 499 34,000  Level FlightAware Transoceanic
08:36PM 58.7062 -26.0704 280° West 434 499 34,000  Level FlightAware Transoceanic
08:37PM 58.7267 -26.2996 280° West 434 499 34,000  Level FlightAware Transoceanic
08:38PM 58.7469 -26.5291 280° West 434 499 34,000  Level FlightAware Transoceanic
08:39PM 58.7667 -26.7588 279° West 434 499 34,000  Level FlightAware Transoceanic
08:40PM 58.7860 -26.9888 279° West 434 499 34,000  Level FlightAware Transoceanic
08:41PM 58.8049 -27.2191 279° West 434 499 34,000  Level FlightAware Transoceanic
08:42PM 58.8235 -27.4496 279° West 434 499 34,000  Level FlightAware Transoceanic
08:43PM 58.8416 -27.6803 279° West 434 499 34,000  Level FlightAware Transoceanic
08:44PM 58.8593 -27.9113 278° West 434 499 34,000  Level FlightAware Transoceanic
08:45PM 58.8766 -28.1425 278° West 434 499 34,000  Level FlightAware Transoceanic
08:46PM 58.8935 -28.3739 278° West 434 499 34,000  Level FlightAware Transoceanic
08:47PM 58.9099 -28.6056 278° West 434 499 34,000  Level FlightAware Transoceanic
08:48PM 58.9260 -28.8375 278° West 434 499 34,000  Level FlightAware Transoceanic
08:49PM 58.9416 -29.0696 277° West 434 499 34,000  Level FlightAware Transoceanic
08:50PM 58.9568 -29.3019 277° West 434 499 34,000  Level FlightAware Transoceanic
08:51PM 58.9716 -29.5344 277° West 434 499 34,000  Level FlightAware Transoceanic
08:52PM 58.9860 -29.7671 277° West 434 499 34,000  Level FlightAware Transoceanic
08:53PM 59.0000 -29.9991 277° West  Level FlightAware Approximate
08:54PM 59.0001 -30.0033 274° West  Level FlightAware Approximate
08:55PM 59.0089 -30.2363 274° West  Level FlightAware Approximate
08:56PM 59.0173 -30.4694 274° West  Level FlightAware Approximate
08:57PM 59.0252 -30.7026 274° West  Level FlightAware Approximate
08:58PM 59.0327 -30.9359 274° West  Level FlightAware Approximate
08:59PM 59.0398 -31.1694 273° West  Level FlightAware Approximate
09:00PM 59.0465 -31.4029 273° West  Level FlightAware Approximate
09:01PM 59.0528 -31.6365 273° West  Level FlightAware Approximate
09:02PM 59.0587 -31.8702 273° West  Level FlightAware Approximate
09:03PM 59.0641 -32.1040 273° West  Level FlightAware Approximate
09:04PM 59.0691 -32.3378 272° West  Level FlightAware Approximate
09:05PM 59.0737 -32.5717 272° West  Level FlightAware Approximate
09:06PM 59.0778 -32.8057 272° West  Level FlightAware Approximate
09:07PM 59.0816 -33.0397 272° West  Level FlightAware Approximate
09:08PM 59.0849 -33.2738 272° West  Level FlightAware Approximate
09:09PM 59.0878 -33.5079 271° West  Level FlightAware Approximate
09:10PM 59.0903 -33.7420 271° West  Level FlightAware Approximate
09:11PM 59.0923 -33.9762 271° West  Level FlightAware Approximate
09:12PM 59.0940 -34.2104 271° West  Level FlightAware Approximate
09:13PM 59.0952 -34.4446 271° West  Level FlightAware Approximate
09:14PM 59.0960 -34.6788 270° West  Level FlightAware Approximate
09:15PM 59.0963 -34.9131 270° West  Level FlightAware Approximate
09:16PM 59.0963 -35.1473 270° West  Level FlightAware Approximate
09:17PM 59.0958 -35.3816 270° West  Level FlightAware Approximate
09:18PM 59.0949 -35.6158 270° West  Level FlightAware Approximate
09:19PM 59.0936 -35.8500 269° West  Level FlightAware Approximate
09:20PM 59.0918 -36.0842 269° West  Level FlightAware Approximate
09:21PM 59.0897 -36.3184 269° West  Level FlightAware Approximate
09:22PM 59.0871 -36.5525 269° West  Level FlightAware Approximate
09:23PM 59.0841 -36.7866 269° West  Level FlightAware Approximate
09:24PM 59.0807 -37.0207 268° West  Level FlightAware Approximate
09:25PM 59.0768 -37.2547 268° West  Level FlightAware Approximate
09:26PM 59.0725 -37.4886 268° West  Level FlightAware Approximate
09:27PM 59.0678 -37.7225 268° West  Level FlightAware Approximate
09:28PM 59.0627 -37.9563 268° West  Level FlightAware Approximate
09:29PM 59.0572 -38.1901 267° West  Level FlightAware Approximate
09:30PM 59.0512 -38.4238 267° West  Level FlightAware Approximate
09:31PM 59.0448 -38.6573 267° West  Level FlightAware Approximate
09:32PM 59.0381 -38.8908 267° West  Level FlightAware Approximate
09:33PM 59.0308 -39.1242 267° West  Level FlightAware Approximate
09:34PM 59.0232 -39.3575 266° West  Level FlightAware Approximate
09:35PM 59.0152 -39.5907 266° West  Level FlightAware Approximate
09:36PM 59.0067 -39.8238 266° West  Level FlightAware Approximate
09:37PM 58.9916 -40.0545 253° West  Level FlightAware Approximate
09:38PM 58.9566 -40.2779 253° West  Level FlightAware Approximate
09:39PM 58.9213 -40.5008 253° West  Level FlightAware Approximate
09:40PM 58.8857 -40.7233 253° West  Level FlightAware Approximate
09:41PM 58.8496 -40.9453 253° West  Level FlightAware Approximate
09:42PM 58.8132 -41.1668 252° West  Level FlightAware Approximate
09:43PM 58.7763 -41.3879 252° West  Level FlightAware Approximate
09:44PM 58.7392 -41.6085 252° West  Level FlightAware Approximate
09:45PM 58.7016 -41.8286 252° West  Level FlightAware Approximate
09:46PM 58.6636 -42.0482 252° West  Level FlightAware Approximate
09:47PM 58.6253 -42.2674 252° West  Level FlightAware Approximate
09:48PM 58.5866 -42.4861 251° West  Level FlightAware Approximate
09:49PM 58.5476 -42.7043 251° West  Level FlightAware Approximate
09:50PM 58.5081 -42.9220 251° West  Level FlightAware Approximate
09:51PM 58.4691 -43.1397 251° West  Level FlightAware Approximate
09:52PM 58.4299 -43.3571 251° West  Level FlightAware Approximate
09:53PM 58.3903 -43.5740 251° West  Level FlightAware Approximate
09:54PM 58.3503 -43.7903 251° West  Level FlightAware Approximate
09:55PM 58.3100 -44.0062 251° West  Level FlightAware Approximate
09:56PM 58.2694 -44.2216 250° West  Level FlightAware Approximate
09:57PM 58.2283 -44.4366 250° West  Level FlightAware Approximate
09:58PM 58.1869 -44.6510 250° West  Level FlightAware Approximate
09:59PM 58.1452 -44.8649 250° West  Level FlightAware Approximate
10:00PM 58.1031 -45.0783 250° West  Level FlightAware Approximate
10:01PM 58.0606 -45.2912 249° West  Level FlightAware Approximate
10:02PM 58.0178 -45.5036 249° West  Level FlightAware Approximate
10:03PM 57.9746 -45.7155 249° West  Level FlightAware Approximate
10:04PM 57.9310 -45.9268 249° West  Level FlightAware Approximate
10:05PM 57.8872 -46.1377 249° West  Level FlightAware Approximate
10:06PM 57.8429 -46.3480 249° West  Level FlightAware Approximate
10:07PM 57.7984 -46.5578 248° West  Level FlightAware Approximate
10:08PM 57.7534 -46.7672 248° West  Level FlightAware Approximate
10:09PM 57.7082 -46.9759 248° West  Level FlightAware Approximate
10:10PM 57.6626 -47.1842 248° West  Level FlightAware Approximate
10:11PM 57.6166 -47.3919 248° West  Level FlightAware Approximate
10:12PM 57.5703 -47.5991 247° West  Level FlightAware Approximate
10:13PM 57.5237 -47.8058 247° West  Level FlightAware Approximate
10:14PM 57.4768 -48.0120 247° West  Level FlightAware Approximate
10:15PM 57.4295 -48.2176 247° West  Level FlightAware Approximate
10:16PM 57.3818 -48.4227 247° West  Level FlightAware Approximate
10:17PM 57.3339 -48.6272 247° West  Level FlightAware Approximate
10:18PM 57.2856 -48.8312 246° West  Level FlightAware Approximate
10:19PM 57.2370 -49.0347 246° West  Level FlightAware Approximate
10:20PM 57.1880 -49.2377 246° West  Level FlightAware Approximate
10:21PM 57.1387 -49.4401 246° West  Level FlightAware Approximate
10:22PM 57.0891 -49.6419 246° West  Level FlightAware Approximate
10:23PM 57.0392 -49.8432 246° West  Level FlightAware Approximate
10:24PM 56.9975 -50.0482 264° West  Level FlightAware Approximate
10:25PM 56.9856 -50.2680 264° West  Level FlightAware Approximate
10:26PM 56.9734 -50.4877 264° West  Level FlightAware Approximate
10:27PM 56.9609 -50.7072 264° West  Level FlightAware Approximate
10:28PM 56.9479 -50.9265 264° West  Level FlightAware Approximate
10:29PM 56.9346 -51.1457 264° West  Level FlightAware Approximate
10:30PM 56.9208 -51.3647 264° West  Level FlightAware Approximate
10:31PM 56.9067 -51.5836 263° West  Level FlightAware Approximate
10:32PM 56.8922 -51.8022 263° West  Level FlightAware Approximate
10:33PM 56.8773 -52.0208 263° West  Level FlightAware Approximate
10:34PM 56.8621 -52.2391 263° West  Level FlightAware Approximate
10:35PM 56.8464 -52.4573 263° West  Level FlightAware Approximate
10:36PM 56.8304 -52.6753 262° West  Level FlightAware Approximate
10:37PM 56.8140 -52.8931 262° West  Level FlightAware Approximate
10:38PM 56.7972 -53.1107 262° West  Level FlightAware Approximate
10:39PM 56.7801 -53.3281 262° West  Level FlightAware Approximate
10:40PM 56.7626 -53.5453 262° West  Level FlightAware Approximate
10:41PM 56.7447 -53.7623 262° West  Level FlightAware Approximate
10:42PM 56.7264 -53.9790 261° West  Level FlightAware Approximate
10:43PM 56.7077 -54.1956 261° West  Level FlightAware Approximate
10:44PM 56.6887 -54.4120 261° West  Level FlightAware Approximate
10:45PM 56.6693 -54.6281 261° West  Level FlightAware Approximate
10:46PM 56.6495 -54.8440 261° West  Level FlightAware Approximate
10:47PM 56.6293 -55.0597 260° West  Level FlightAware Approximate
10:48PM 56.6088 -55.2752 260° West  Level FlightAware Approximate
10:49PM 56.5879 -55.4904 260° West  Level FlightAware Approximate
10:49PM 56.6333 -55.0000 225° Southwest 410 472 34,000  Level Gander Center
10:50PM 56.5666 -55.7054 260° West  Level FlightAware Approximate
10:50PM 56.6167 -55.1167 255° West 310 357 34,000  Level Gander Center
10:51PM 56.4816 -55.8585 225° Southwest  Level Estimated
10:51PM 56.6000 -55.3000 261° West 400 460 34,000  Level Gander Center
10:52PM 56.3965 -56.0110 225° Southwest  Level Estimated
10:52PM 56.5833 -55.5167 262° West 410 472 34,000  Level Gander Center
10:53PM 56.3111 -56.1628 225° Southwest  Level Estimated
10:53PM 56.5667 -55.7000 261° West 400 460 34,000  Level Gander Center
10:54PM 56.2256 -56.3140 225° Southwest  Level Estimated
10:54PM 56.5000 -55.9000 239° Southwest 390 449 34,000  Level Gander Center
10:55PM 56.4333 -56.0500 231° Southwest 420 483 34,000 120 Level Gander Center
10:56PM 56.3333 -56.2167 223° Southwest 420 483 34,300 1,080 Climbing Gander Center
10:57PM 56.2667 -56.3833 234° Southwest 420 483 36,200 1,740 Climbing Gander Center
10:58PM 56.1833 -56.5333 225° Southwest 420 483 37,800 900 Climbing Gander Center
10:59PM 56.1167 -56.7000 234° Southwest 410 472 38,000 60 Climbing Gander Center
11:00PM 56.0500 -56.8500 232° Southwest 410 472 38,000  Level Gander Center
11:01PM 55.9667 -57.0167 228° Southwest 410 472 38,000  Level Gander Center
11:01PM 55.8833 -57.1333 218° Southwest 420 483 38,000  Level Moncton Center
11:02PM 55.8167 -57.2667 228° Southwest 420 483 38,000  Level Moncton Center
11:03PM 55.7333 -57.4333 228° Southwest 420 483 38,000  Level Moncton Center
11:04PM 55.6667 -57.5833 232° Southwest 420 483 38,000  Level Moncton Center
11:05PM 55.5833 -57.7500 229° Southwest 420 483 38,000  Level Moncton Center
11:06PM 55.5167 -57.9000 232° Southwest 420 483 38,000  Level Moncton Center
11:07PM 55.4333 -58.0333 222° Southwest 420 483 38,000  Level Moncton Center
11:08PM 55.3500 -58.2000 229° Southwest 420 483 38,000  Level Moncton Center
11:09PM 55.2667 -58.3500 226° Southwest 420 483 38,000  Level Moncton Center
11:10PM 55.1833 -58.5167 229° Southwest 420 483 38,000  Level Moncton Center
11:11PM 55.1167 -58.6500 229° Southwest 420 483 38,000  Level Moncton Center
11:12PM 55.0333 -58.8000 226° Southwest 420 483 38,000  Level Moncton Center
11:13PM 54.9667 -58.9500 232° Southwest 420 483 38,000  Level Moncton Center
11:14PM 54.8833 -59.0833 223° Southwest 420 483 38,000  Level Moncton Center
11:15PM 54.7833 -59.2333 221° Southwest 420 483 38,000  Level Moncton Center
11:16PM 54.7167 -59.4000 235° Southwest 420 483 38,000  Level Moncton Center
11:17PM 54.6333 -59.5500 226° Southwest 420 483 38,000  Level Moncton Center
11:18PM 54.5500 -59.6667 219° Southwest 420 483 38,000  Level Moncton Center
11:19PM 54.4833 -59.8167 233° Southwest 420 483 38,000  Level Moncton Center
11:20PM 54.4000 -59.9833 229° Southwest 420 483 38,000  Level Moncton Center
11:21PM 54.3000 -60.1333 221° Southwest 420 483 38,000  Level Moncton Center
11:22PM 54.2167 -60.2500 219° Southwest 420 483 38,000  Level Moncton Center
11:23PM 54.1500 -60.4000 233° Southwest 420 483 38,000  Level Moncton Center
11:24PM 54.0667 -60.5500 227° Southwest 420 483 38,000  Level Moncton Center
11:25PM 53.9833 -60.7000 227° Southwest 420 483 38,000  Level Moncton Center
11:26PM 53.9000 -60.8167 220° Southwest 420 483 38,000  Level Moncton Center
11:27PM 53.8167 -60.9667 227° Southwest 420 483 38,000  Level Moncton Center
11:28PM 53.7333 -61.1167 227° Southwest 420 483 38,000  Level Moncton Center
11:29PM 53.6500 -61.2667 227° Southwest 420 483 38,000  Level Moncton Center
11:30PM 53.5667 -61.4167 227° Southwest 420 483 38,000  Level Moncton Center
11:31PM 53.4833 -61.5333 220° Southwest 420 483 38,000  Level Moncton Center
11:32PM 53.4167 -61.6833 233° Southwest 420 483 38,000  Level Moncton Center
11:33PM 53.3333 -61.8167 224° Southwest 420 483 38,000  Level Moncton Center
11:34PM 53.2333 -61.9333 215° Southwest 420 483 38,000  Level Moncton Center
11:35PM 53.1667 -62.0833 233° Southwest 410 472 38,000  Level Moncton Center
11:36PM 53.0667 -62.2333 222° Southwest 410 472 38,000  Level Moncton Center
11:37PM 52.9833 -62.3333 216° Southwest 410 472 38,000  Level Moncton Center
11:38PM 52.9000 -62.4833 227° Southwest 410 472 38,000  Level Moncton Center
11:39PM 52.8167 -62.6333 227° Southwest 410 472 38,000  Level Moncton Center
11:40PM 52.7500 -62.7333 222° Southwest 420 483 38,000  Level Moncton Center
11:41PM 52.6667 -62.8833 228° Southwest 410 472 38,000  Level Moncton Center
11:42PM 52.5833 -63.0000 220° Southwest 410 472 38,000  Level Moncton Center
11:43PM 52.5000 -63.1333 224° Southwest 410 472 38,000  Level Moncton Center
11:44PM 52.4167 -63.2667 224° Southwest 410 472 38,000  Level Moncton Center
11:45PM 52.3333 -63.4167 228° Southwest 410 472 38,000  Level Moncton Center
11:46PM 52.2500 -63.5167 216° Southwest 410 472 38,000  Level Moncton Center
11:48PM 52.1500 -63.6833 226° Southwest 410 472 38,000  Level Gander Center
11:49PM 52.0667 -63.8167 225° Southwest 410 472 38,000  Level Gander Center
11:50PM 51.9833 -63.9500 225° Southwest 410 472 38,000  Level Gander Center
11:50PM 51.9167 -64.0500 223° Southwest 410 472 38,000  Level Moncton Center
11:51PM 51.8333 -64.1500 217° Southwest 410 472 38,000  Level Moncton Center
11:52PM 51.7500 -64.2833 225° Southwest 410 472 38,000  Level Moncton Center
11:53PM 51.6667 -64.4167 225° Southwest 410 472 38,000  Level Moncton Center
11:54PM 51.5833 -64.5333 221° Southwest 400 460 38,000  Level Moncton Center
11:56PM 51.4167 -64.7667 221° Southwest 410 472 38,000  Level Moncton Center
11:57PM 51.3333 -64.9000 225° Southwest 410 472 38,000  Level Moncton Center
11:58PM 51.2500 -65.0167 221° Southwest 410 472 38,000  Level Moncton Center
11:59PM 51.1667 -65.1500 225° Southwest 400 460 38,000  Level Moncton Center
12:00AM 51.0833 -65.2500 217° Southwest 400 460 38,000  Level Moncton Center
12:02AM 50.9833 -65.4000 223° Southwest 410 472 38,000  Level Gander Center
12:02AM 50.9167 -65.5167 228° Southwest 400 460 38,000  Level Moncton Center
12:03AM 50.8167 -65.6167 212° Southwest 410 472 38,000  Level Moncton Center
12:04AM 50.7333 -65.7500 225° Southwest 410 472 38,000  Level Moncton Center
12:05AM 50.6500 -65.8500 217° Southwest 410 472 38,000  Level Moncton Center
12:06AM 50.5667 -65.9833 225° Southwest 410 472 38,000  Level Moncton Center
12:07AM 50.4833 -66.0833 217° Southwest 410 472 38,000  Level Moncton Center
12:08AM 50.4000 -66.2167 226° Southwest 410 472 38,000  Level Moncton Center
12:09AM 50.3167 -66.3333 222° Southwest 410 472 38,000  Level Moncton Center
12:11AM 50.2000 -66.4667 216° Southwest 390 449 38,000  Level Montreal Center
12:12AM 50.1000 -66.5667 213° Southwest 400 460 38,000  Level Montreal Center
12:13AM 50.0333 -66.6833 228° Southwest 400 460 38,000  Level Montreal Center
12:14AM 49.9333 -66.8000 217° Southwest 390 449 38,000  Level Montreal Center
12:15AM 49.8667 -66.9000 224° Southwest 390 449 38,000  Level Montreal Center
12:16AM 49.7667 -67.0167 217° Southwest 390 449 38,000  Level Montreal Center
12:17AM 49.7000 -67.1167 224° Southwest 390 449 38,000  Level Montreal Center
12:18AM 49.5667 -67.3167 224° Southwest 380 437 38,000  Level Moncton Center
12:19AM 49.4833 -67.4333 222° Southwest 380 437 38,000  Level Moncton Center
12:20AM 49.4000 -67.5333 218° Southwest 380 437 38,000  Level Moncton Center
12:21AM 49.3333 -67.6333 224° Southwest 380 437 38,000  Level Moncton Center
12:23AM 49.2000 -67.7500 210° Southwest 380 437 38,000  Level Montreal Center
12:24AM 49.1333 -67.8667 229° Southwest 380 437 38,000  Level Montreal Center
12:25AM 49.0500 -67.9500 213° Southwest 380 437 38,000  Level Montreal Center
12:26AM 48.9667 -68.0667 223° Southwest 380 437 38,000  Level Montreal Center
12:27AM 48.9000 -68.1667 225° Southwest 380 437 38,000  Level Montreal Center
12:28AM 48.8000 -68.2833 218° Southwest 380 437 38,000  Level Montreal Center
12:29AM 48.7167 -68.3667 213° Southwest 380 437 38,000  Level Montreal Center
12:30AM 48.6333 -68.4833 223° Southwest 380 437 38,000  Level Montreal Center
12:35AM 48.2520 -69.0040 223° Southwest 390 449 38,000  Level FlightAware
12:36AM 48.1760 -69.0970 219° Southwest 392 451 38,000  Level FlightAware
12:36AM 48.1240 -69.1600 219° Southwest 387 445 38,000  Level FlightAware
12:37AM 48.0640 -69.2320 219° Southwest 384 442 38,000  Level FlightAware
12:38AM 48.0050 -69.3020 218° Southwest 382 440 38,000  Level FlightAware
12:39AM 47.9400 -69.3800 219° Southwest 382 440 38,000  Level FlightAware
12:39AM 47.8920 -69.4370 219° Southwest 382 440 38,000  Level FlightAware
12:40AM 47.8320 -69.5090 219° Southwest 383 441 38,000  Level FlightAware
12:41AM 47.7760 -69.5740 218° Southwest 385 443 38,000  Level FlightAware
12:42AM 47.6860 -69.6660 215° Southwest 392 451 38,000  Level FlightAware
12:42AM 47.6160 -69.7350 214° Southwest 396 456 38,000  Level FlightAware
12:43AM 47.5570 -69.7930 214° Southwest 399 459 38,000  Level FlightAware
12:44AM 47.4920 -69.8560 213° Southwest 400 460 38,000  Level FlightAware
12:44AM 47.4220 -69.9240 213° Southwest 401 461 38,000  Level FlightAware
12:45AM 47.3600 -69.9850 214° Southwest 402 463 38,000  Level FlightAware
12:46AM 47.2990 -70.0440 213° Southwest 402 463 38,000  Level FlightAware
12:46AM 47.2290 -70.1120 213° Southwest 400 460 38,000  Level FlightAware
12:47AM 47.1750 -70.1640 213° Southwest 402 463 38,000  Level FlightAware
12:48AM 47.1150 -70.2220 213° Southwest 404 465 38,000  Level FlightAware
12:48AM 47.0500 -70.2850 213° Southwest 404 465 38,000  Level FlightAware
12:49AM 46.9880 -70.3440 213° Southwest 405 466 38,000  Level FlightAware
12:50AM 46.9250 -70.4040 213° Southwest 405 466 38,000  Level FlightAware
12:50AM 46.8540 -70.4720 213° Southwest 406 467 38,000  Level FlightAware
12:51AM 46.8000 -70.5230 213° Southwest 406 467 38,000  Level FlightAware
12:52AM 46.7380 -70.5820 213° Southwest 406 467 38,000  Level FlightAware
12:52AM 46.6820 -70.6350 213° Southwest 406 467 38,000  Level FlightAware
12:53AM 46.5890 -70.7220 213° Southwest 406 467 38,000  Level FlightAware
12:54AM 46.5170 -70.7900 213° Southwest 405 466 38,000  Level FlightAware
12:55AM 46.4530 -70.8500 213° Southwest 405 466 38,000  Level FlightAware
12:55AM 46.3930 -70.9060 213° Southwest 404 465 38,000  Level FlightAware
12:56AM 46.3050 -70.9880 213° Southwest 400 460 38,000  Level FlightAware
12:57AM 46.2440 -71.0440 212° Southwest 400 460 38,000  Level FlightAware
12:58AM 46.1810 -71.1030 213° Southwest 404 465 38,000  Level FlightAware
12:58AM 46.1140 -71.1650 213° Southwest 405 466 38,000  Level FlightAware
12:59AM 46.0450 -71.2290 213° Southwest 407 468 38,000  Level FlightAware
01:00AM 45.9930 -71.2770 213° Southwest 408 470 38,000  Level FlightAware
01:00AM 45.9090 -71.3530 212° Southwest 406 467 38,000  Level FlightAware
01:01AM 45.8520 -71.4060 213° Southwest 406 467 38,000  Level FlightAware
01:02AM 45.7890 -71.4630 212° Southwest 407 468 38,000  Level FlightAware
01:02AM 45.7530 -71.4960 213° Southwest 401 461 38,000  Level FlightAware
01:03AM 45.6890 -71.5540 212° Southwest 403 464 38,000  Level FlightAware
01:04AM 45.6170 -71.6190 212° Southwest 403 464 38,000  Level FlightAware
01:04AM 45.5540 -71.6760 212° Southwest 404 465 38,000  Level FlightAware
01:05AM 45.4970 -71.7280 213° Southwest 403 464 38,000  Level FlightAware
01:06AM 45.4260 -71.7910 212° Southwest 404 465 38,000  Level FlightAware
01:06AM 45.3630 -71.8480 212° Southwest 405 466 38,000  Level FlightAware
01:07AM 45.2960 -71.9020 210° Southwest 408 470 38,000  Level FlightAware
01:08AM 45.2280 -71.9540 208° Southwest 406 467 38,000  Level FlightAware
01:08AM 45.1540 -72.0120 209° Southwest 391 450 38,000  Level FlightAware
01:09AM 45.0900 -72.0630 209° Southwest 393 452 38,000  Level FlightAware
01:10AM 45.0280 -72.1130 210° Southwest 387 445 38,000  Level FlightAware
01:10AM 44.9640 -72.1620 208° Southwest 386 444 38,000  Level FlightAware
01:11AM 44.9170 -72.1990 209° Southwest 392 451 38,000  Level FlightAware
01:12AM 44.8340 -72.2630 209° Southwest 391 450 38,000  Level FlightAware
01:12AM 44.7700 -72.3130 209° Southwest 390 449 38,000  Level FlightAware
01:13AM 44.7080 -72.3600 208° Southwest 389 448 38,000 -840 Level FlightAware
01:14AM 44.6430 -72.4100 209° Southwest 402 463 36,900 -1,320 Descending FlightAware
01:14AM 44.5780 -72.4610 209° Southwest 399 459 36,300 -1,020 Descending FlightAware
01:15AM 44.5130 -72.5110 209° Southwest 399 459 35,600 -1,080 Descending FlightAware
01:16AM 44.4480 -72.5590 208° Southwest 395 455 34,900 -1,140 Descending FlightAware
01:16AM 44.3830 -72.6090 209° Southwest 396 456 34,100 -660 Descending FlightAware
01:17AM 44.3180 -72.6580 208° Southwest 403 464 34,000 -120 Descending FlightAware
01:18AM 44.2440 -72.7140 208° Southwest 402 463 34,000  Level FlightAware
01:18AM 44.1780 -72.7630 208° Southwest 400 460 34,000  Level FlightAware
01:19AM 44.1220 -72.8050 208° Southwest 390 449 34,000  Level FlightAware
01:20AM 44.0480 -72.8600 208° Southwest 387 445 34,000  Level FlightAware
01:20AM 43.9840 -72.9080 208° Southwest 384 442 34,000 -300 Level FlightAware
01:21AM 43.9140 -72.9600 208° Southwest 389 448 33,600 -1,440 Descending FlightAware
01:22AM 43.8540 -73.0050 208° Southwest 416 479 32,100 -2,040 Descending FlightAware
01:23AM 43.7800 -73.0590 208° Southwest 421 484 30,900 -1,560 Descending FlightAware
01:23AM 43.7140 -73.1080 208° Southwest 421 484 30,000 -1,260 Descending FlightAware
01:24AM 43.6050 -73.1880 208° Southwest 418 481 28,700 -1,200 Descending FlightAware
01:25AM 43.4890 -73.2730 208° Southwest 399 459 27,500 -1,260 Descending FlightAware
01:26AM 43.4180 -73.3250 208° Southwest 405 466 26,600 -720 Descending FlightAware
01:27AM 43.3580 -73.3690 208° Southwest 405 466 26,500 -120 Descending FlightAware
01:27AM 43.3070 -73.4060 208° Southwest 405 466 26,500  Level FlightAware
01:28AM 43.2400 -73.4550 208° Southwest 405 466 26,500 -1,680 Level FlightAware
01:29AM 43.1570 -73.5130 207° Southwest 398 458 24,100 -1,920 Descending FlightAware
01:29AM 43.1060 -73.5490 207° Southwest 398 458 24,100  Level FlightAware
01:30AM 43.0390 -73.5960 207° Southwest 398 458 24,100  Level FlightAware
01:31AM 42.9860 -73.6330 207° Southwest 398 458 24,100  Level FlightAware
01:31AM 42.9360 -73.6680 207° Southwest 398 458 24,100  Level FlightAware
01:32AM 42.8690 -73.7140 207° Southwest 398 458 24,100 -3,900 Level FlightAware
01:34AM 42.7150 -73.8219 207° Southwest 358 412 16,000 -3,540 Descending Boston Center
01:35AM 42.6208 -73.8650 199° South 353 406 16,000  Level Boston Center
01:36AM 42.5264 -73.9022 196° South 353 406 16,100  Climbing Boston Center
01:37AM 42.4236 -73.9475 198° South 359 413 16,100  Level Boston Center
01:39AM 42.2392 -74.0300 198° South 359 413 16,100 -720 Level Boston Center
01:45AM 41.6820 -74.2720 198° South 336 387 10,700 -840 Descending FlightAware
01:46AM 41.6070 -74.3030 197° South 308 354 10,400 -240 Descending FlightAware
01:46AM 41.5640 -74.3210 197° South 308 354 10,400  Level FlightAware
01:47AM 41.5210 -74.3380 196° South 308 354 10,400 -2,160 Level FlightAware
01:48AM 41.4750 -74.3600 200° South 267 307 7,900 -2,280 Descending FlightAware
01:48AM 41.4130 -74.3870 198° South 262 302 7,100 -600 Descending FlightAware
01:49AM 41.3850 -74.3980 196° South 262 302 7,100  Level FlightAware
01:51AM 41.2170 -74.3830 176° South 288 331 7,100  Level FlightAware
01:51AM 41.1951 -74.3623 145° Southeast 287 330 7,100  Level FlightAware ADS-B
01:52AM 41.1790 -74.3469 144° Southeast 287 330 7,100 -600 Level FlightAware ADS-B
01:52AM 41.1527 -74.3220 145° Southeast 282 325 6,700 -1,320 Descending FlightAware ADS-B
01:53AM 41.0940 -74.2670 145° Southeast 282 325 5,400 -1,020 Descending FlightAware
01:54AM 41.0690 -74.2430 144° Southeast 282 325 5,300 -1,500 Descending FlightAware
01:54AM 41.0440 -74.2210 146° Southeast 283 326 4,200 -1,560 Descending FlightAware
01:54AM 41.0150 -74.1940 145° Southeast 282 325 4,100 -120 Descending FlightAware
01:55AM 40.9826 -74.1634 145° Southeast 283 326 4,100 -180 Level FlightAware ADS-B
01:55AM 40.9615 -74.1437 145° Southeast 277 319 4,000 -960 Descending FlightAware ADS-B
01:55AM 40.9419 -74.1256 145° Southeast 276 318 3,500 -1,380 Descending FlightAware ADS-B
01:56AM 40.9243 -74.1092 145° Southeast 275 316 3,200 -780 Descending FlightAware ADS-B
01:56AM 40.9088 -74.0949 145° Southeast 263 303 3,100 -240 Descending FlightAware ADS-B
01:56AM 40.8939 -74.0812 145° Southeast 248 285 3,100 -240 Level FlightAware ADS-B
01:56AM 40.8810 -74.0695 146° Southeast 234 269 3,000 -660 Descending FlightAware ADS-B
01:57AM 40.8762 -74.0662 153° Southeast 228 262 2,900 -720 Descending FlightAware ADS-B
01:57AM 40.8719 -74.0642 161° South 223 257 2,900 -960 Level FlightAware ADS-B
01:57AM 40.8633 -74.0618 168° South 214 246 2,700 -1,200 Descending FlightAware ADS-B
01:57AM 40.8578 -74.0625 185° South 206 237 2,600 -600 Descending FlightAware ADS-B
01:57AM 40.8542 -74.0638 195° South 197 227 2,600  Level FlightAware ADS-B
01:57AM 40.8502 -74.0659 202° Southwest 191 220 2,600  Level FlightAware ADS-B
01:57AM 40.8382 -74.0731 204° Southwest 172 198 2,600 -480 Level FlightAware ADS-B
01:58AM 40.8111 -74.0901 205° Southwest 165 190 2,200 -720 Descending FlightAware ADS-B
01:58AM 40.7972 -74.0990 206° Southwest 164 189 1,900 -840 Descending FlightAware ADS-B
01:59AM 40.7873 -74.1052 205° Southwest 151 174 1,700 -780 Descending FlightAware ADS-B
01:59AM 40.7768 -74.1119 206° Southwest 145 167 1,500 -780 Descending FlightAware ADS-B
01:59AM 40.7684 -74.1172 206° Southwest 127 146 1,300 -780 Descending FlightAware ADS-B
01:59AM 40.7591 -74.1231 206° Southwest 122 140 1,100 -540 Descending FlightAware ADS-B
02:00AM 40.7514 -74.1281 206° Southwest 123 142 1,000 -420 Descending FlightAware ADS-B